Time;durP1;ratioP1;P1;durP2;ratioP2;P2;SDS_P1;SDS_P2;PMS_P1;PMS_P2;Temp;Humidity;BMP_temperature;BMP_pressure;BME280_temperature;BME280_humidity;BME280_pressure;Samples;Min_cycle;Max_cycle;Signal;HPM_P1;HPM_P2
2022/12/09 00:01:36;;;;;;;5.97;3.07;;;7.60;91.00;;;;;;4957759;28;20190;-71
2022/12/09 00:04:02;;;;;;;3.63;3.23;;;7.60;90.60;;;;;;4957374;28;20670;-71
2022/12/09 00:06:29;;;;;;;4.70;4.20;;;7.60;90.20;;;;;;4954481;28;20231;-71
2022/12/09 00:08:56;;;;;;;5.37;3.43;;;7.60;90.30;;;;;;4953444;28;20190;-72
2022/12/09 00:11:22;;;;;;;4.37;2.80;;;7.60;90.20;;;;;;4950925;28;20191;-71
2022/12/09 00:13:55;;;;;;;4.73;3.50;;;7.60;90.20;;;;;;4945569;28;20188;-71
2022/12/09 00:16:22;;;;;;;3.43;3.13;;;7.60;91.00;;;;;;4950964;28;20261;-72
2022/12/09 00:18:48;;;;;;;3.57;3.27;;;7.50;90.90;;;;;;4955987;28;20186;-71
2022/12/09 00:21:30;;;;;;;3.00;2.83;;;7.50;90.90;;;;;;4951086;28;20175;-70
2022/12/09 00:23:58;;;;;;;6.73;3.43;;;7.50;91.20;;;;;;4944880;28;20187;-71
2022/12/09 00:26:25;;;;;;;7.23;4.27;;;7.50;90.90;;;;;;4953628;28;20595;-71
2022/12/09 00:28:52;;;;;;;3.33;3.03;;;7.40;90.50;;;;;;4953597;28;20183;-72
2022/12/09 00:31:23;;;;;;;7.33;3.70;;;7.40;90.20;;;;;;4951706;28;20186;-71
2022/12/09 00:33:50;;;;;;;8.13;3.40;;;7.40;90.00;;;;;;4956235;28;20189;-72
2022/12/09 00:36:18;;;;;;;3.47;3.17;;;7.50;91.20;;;;;;4951111;28;20214;-71
2022/12/09 00:38:44;;;;;;;4.27;3.87;;;7.50;90.90;;;;;;4948995;28;20266;-71
2022/12/09 00:41:11;;;;;;;2.93;2.73;;;7.50;90.50;;;;;;4951328;28;20199;-72
2022/12/09 00:43:37;;;;;;;3.50;3.30;;;7.50;90.30;;;;;;4951839;28;20191;-72
2022/12/09 00:46:03;;;;;;;4.67;3.53;;;7.50;90.40;;;;;;4950551;28;20190;-71
2022/12/09 00:48:29;;;;;;;3.60;3.30;;;7.50;89.80;;;;;;4954199;28;20269;-71
2022/12/09 00:50:55;;;;;;;3.77;3.00;;;7.50;90.00;;;;;;4953313;28;20215;-71
2022/12/09 00:53:21;;;;;;;5.50;4.40;;;7.60;91.10;;;;;;4951589;28;20174;-72
2022/12/09 00:55:47;;;;;;;5.40;3.10;;;7.50;90.30;;;;;;4950738;28;20213;-72
2022/12/09 00:58:13;;;;;;;5.60;3.20;;;7.60;91.40;;;;;;4950795;28;20637;-71
2022/12/09 01:00:39;;;;;;;3.57;3.30;;;7.60;91.40;;;;;;4954939;28;20183;-72
2022/12/09 01:03:05;;;;;;;6.63;3.90;;;7.60;91.50;;;;;;4952536;28;20618;-72
2022/12/09 01:05:34;;;;;;;3.37;3.07;;;7.60;90.80;;;;;;4914570;28;1151475;-72
2022/12/09 01:07:59;;;;;;;3.57;3.23;;;7.50;90.60;;;;;;4952899;28;20280;-71
2022/12/09 01:10:25;;;;;;;6.73;3.43;;;7.50;90.70;;;;;;4948956;28;20187;-71
2022/12/09 01:12:51;;;;;;;5.60;3.70;;;7.60;91.30;;;;;;4937934;28;20194;-71
2022/12/09 01:15:17;;;;;;;3.20;3.00;;;7.60;90.70;;;;;;4954859;28;20218;-71
2022/12/09 01:17:42;;;;;;;4.17;3.50;;;7.60;90.10;;;;;;4951953;28;20279;-70
2022/12/09 01:20:09;;;;;;;6.47;3.73;;;7.50;91.20;;;;;;4952333;28;20209;-72
2022/12/09 01:22:35;;;;;;;4.67;3.33;;;7.60;91.00;;;;;;4952307;28;20183;-71
2022/12/09 01:25:01;;;;;;;6.23;3.77;;;7.60;91.20;;;;;;4953908;28;20191;-71
2022/12/09 01:27:30;;;;;;;5.53;3.67;;;7.60;90.70;;;;;;4953025;28;20191;-70
2022/12/09 01:29:55;;;;;;;4.17;3.73;;;7.60;90.60;;;;;;4952855;28;20278;-71
2022/12/09 01:32:21;;;;;;;8.63;3.50;;;7.70;90.60;;;;;;4955558;28;20315;-71
2022/12/09 01:34:47;;;;;;;3.80;3.40;;;7.70;91.30;;;;;;4954998;28;20183;-71
2022/12/09 01:37:12;;;;;;;6.23;3.43;;;7.70;91.20;;;;;;4947761;28;20223;-71
2022/12/09 01:39:38;;;;;;;3.90;3.00;;;7.70;90.70;;;;;;4947760;28;20267;-71
2022/12/09 01:42:04;;;;;;;3.83;3.37;;;7.70;90.60;;;;;;4933989;28;20184;-72
2022/12/09 01:44:32;;;;;;;7.17;3.43;;;7.70;91.10;;;;;;4951675;28;20214;-70
2022/12/09 01:46:59;;;;;;;4.87;3.37;;;7.80;91.50;;;;;;4949497;28;20847;-71
2022/12/09 01:49:40;;;;;;;4.30;3.03;;;7.80;91.80;;;;;;4950489;28;20223;-71
2022/12/09 01:52:20;;;;;;;7.50;3.50;;;7.70;91.40;;;;;;4951868;28;20293;-71
2022/12/09 01:54:47;;;;;;;6.53;3.30;;;7.70;91.60;;;;;;4949717;28;20265;-72
2022/12/09 01:57:13;;;;;;;4.57;3.27;;;7.60;91.40;;;;;;4948092;28;20215;-72
2022/12/09 01:59:40;;;;;;;8.10;3.23;;;7.60;91.50;;;;;;4938696;28;20193;-71
2022/12/09 02:02:10;;;;;;;14.10;2.97;;;7.60;91.20;;;;;;4953619;28;20685;-72
2022/12/09 02:04:40;;;;;;;2.93;2.63;;;7.60;91.20;;;;;;4950785;28;21008;-71
2022/12/09 02:07:09;;;;;;;3.90;3.50;;;7.60;91.60;;;;;;4949919;28;20198;-71
2022/12/09 02:09:36;;;;;;;5.53;3.23;;;7.60;91.30;;;;;;4943800;28;20179;-71
2022/12/09 02:12:13;;;;;;;3.70;3.40;;;7.60;91.50;;;;;;4955527;28;20330;-71
2022/12/09 02:14:43;;;;;;;6.17;3.80;;;7.60;91.90;;;;;;4955417;28;20199;-72
2022/12/09 02:17:33;;;;;;;3.20;2.87;;;7.60;91.70;;;;;;4957527;28;20213;-71
2022/12/09 02:20:08;;;;;;;2.90;2.73;;;7.60;92.00;;;;;;4950204;28;20187;-72
2022/12/09 02:22:56;;;;;;;7.10;3.73;;;7.60;91.50;;;;;;4949295;28;20186;-71
2022/12/09 02:25:46;;;;;;;5.23;3.13;;;7.60;92.00;;;;;;4951528;28;20197;-71
2022/12/09 02:28:48;;;;;;;3.63;3.20;;;7.60;91.60;;;;;;4947969;28;20847;-72
2022/12/09 02:31:36;;;;;;;3.37;3.07;;;7.50;91.10;;;;;;4944875;28;20189;-71
2022/12/09 02:34:17;;;;;;;6.63;3.23;;;7.50;91.40;;;;;;4952294;28;20190;-71
2022/12/09 02:36:46;;;;;;;3.87;2.70;;;7.50;91.10;;;;;;4950148;28;20217;-70
2022/12/09 02:39:12;;;;;;;6.97;3.83;;;7.50;91.30;;;;;;4952738;28;20182;-71
2022/12/09 02:41:42;;;;;;;7.47;3.40;;;7.50;91.30;;;;;;4954394;28;20197;-72
2022/12/09 02:44:16;;;;;;;3.27;2.93;;;7.50;91.10;;;;;;4937517;28;20194;-71
2022/12/09 02:46:42;;;;;;;3.40;3.10;;;7.50;90.90;;;;;;4957170;28;20897;-71
2022/12/09 02:49:09;;;;;;;4.40;2.77;;;7.60;91.20;;;;;;4954999;28;20193;-71
2022/12/09 02:51:40;;;;;;;3.80;3.30;;;7.60;91.10;;;;;;4949108;28;20186;-71
2022/12/09 02:54:12;;;;;;;3.53;2.83;;;7.60;90.60;;;;;;4954422;28;20193;-72
2022/12/09 02:56:42;;;;;;;3.30;3.00;;;7.60;91.60;;;;;;4953275;28;20210;-71
2022/12/09 02:59:08;;;;;;;4.20;2.72;;;7.70;91.60;;;;;;4954413;28;20193;-71
2022/12/09 03:01:44;;;;;;;7.17;3.27;;;7.70;91.40;;;;;;4952486;28;20233;-72
2022/12/09 03:04:16;;;;;;;3.93;2.93;;;7.70;91.50;;;;;;4946818;28;20186;-71
2022/12/09 03:06:52;;;;;;;5.17;3.50;;;7.60;91.40;;;;;;4949254;28;20735;-72
2022/12/09 03:09:33;;;;;;;7.70;2.83;;;7.70;91.60;;;;;;4946792;28;20182;-71
2022/12/09 03:12:06;;;;;;;4.83;3.13;;;7.70;91.20;;;;;;4950693;28;20618;-72
2022/12/09 03:14:40;;;;;;;4.20;3.07;;;7.70;91.70;;;;;;4953906;28;20242;-72
2022/12/09 03:17:31;;;;;;;8.20;3.70;;;7.70;91.70;;;;;;4953570;28;20209;-71
2022/12/09 03:20:03;;;;;;;3.23;2.77;;;7.70;91.40;;;;;;4930338;28;20191;-71
2022/12/09 03:22:31;;;;;;;4.13;2.67;;;7.70;91.60;;;;;;4951916;28;20183;-71
2022/12/09 03:25:20;;;;;;;5.20;3.53;;;7.80;92.00;;;;;;4947437;28;20497;-70
2022/12/09 03:28:03;;;;;;;3.43;3.13;;;7.80;91.80;;;;;;4886529;29;20193;-71
2022/12/09 03:30:32;;;;;;;3.70;3.40;;;7.80;91.70;;;;;;4890621;29;20196;-72
2022/12/09 03:32:57;;;;;;;3.60;3.30;;;7.80;92.00;;;;;;4885885;29;21075;-72
2022/12/09 03:35:29;;;;;;;5.20;3.37;;;7.80;91.80;;;;;;4887190;29;20221;-71
2022/12/09 03:37:56;;;;;;;3.43;3.03;;;7.80;92.00;;;;;;4885962;29;20216;-71
2022/12/09 03:40:26;;;;;;;3.20;2.90;;;7.80;92.10;;;;;;4887276;29;20220;-71
2022/12/09 03:43:13;;;;;;;3.50;3.17;;;7.70;91.70;;;;;;4884915;29;20295;-72
2022/12/09 03:45:39;;;;;;;8.40;3.90;;;7.70;92.00;;;;;;4885608;29;20710;-71
2022/12/09 03:48:05;;;;;;;5.33;2.90;;;7.70;92.40;;;;;;4885734;29;20291;-72
2022/12/09 03:50:40;;;;;;;6.50;3.60;;;7.60;92.00;;;;;;4886171;29;20199;-72
2022/12/09 03:53:10;;;;;;;3.37;3.07;;;7.60;92.20;;;;;;4884233;29;20852;-72
2022/12/09 03:56:05;;;;;;;3.60;2.97;;;7.60;92.50;;;;;;4887734;29;20225;-71
2022/12/09 03:58:33;;;;;;;2.93;2.67;;;7.60;92.20;;;;;;4811073;29;20718;-72
2022/12/09 04:01:01;;;;;;;3.63;2.90;;;7.50;91.90;;;;;;4813042;29;20211;-71
2022/12/09 04:03:27;;;;;;;3.27;2.80;;;7.50;92.50;;;;;;4811785;29;20339;-71
2022/12/09 04:05:52;;;;;;;14.10;3.47;;;7.50;92.40;;;;;;4862668;29;20260;-71
2022/12/09 04:08:18;;;;;;;3.07;2.87;;;7.50;92.50;;;;;;4866580;29;20190;-70
2022/12/09 04:10:44;;;;;;;5.37;3.13;;;7.50;93.20;;;;;;4863599;29;20241;-71
2022/12/09 04:13:09;;;;;;;2.97;2.77;;;7.50;92.60;;;;;;4864894;29;20225;-70
2022/12/09 04:15:35;;;;;;;4.20;3.30;;;7.50;92.40;;;;;;4864276;29;20373;-71
2022/12/09 04:18:01;;;;;;;4.33;3.37;;;7.50;92.70;;;;;;4865919;29;20290;-72
2022/12/09 04:20:26;;;;;;;3.20;3.00;;;7.60;92.30;;;;;;4863413;29;20361;-72
2022/12/09 04:22:52;;;;;;;3.10;2.90;;;7.60;92.20;;;;;;4864914;29;20617;-71
2022/12/09 04:25:18;;;;;;;4.07;3.27;;;7.60;92.60;;;;;;4849305;29;20205;-72
2022/12/09 04:27:43;;;;;;;4.37;3.13;;;7.60;92.80;;;;;;4865328;29;20186;-71
2022/12/09 04:30:09;;;;;;;3.80;3.07;;;7.70;92.70;;;;;;4865364;29;21061;-72
2022/12/09 04:32:35;;;;;;;3.37;3.17;;;7.70;92.60;;;;;;4866197;29;20216;-71
2022/12/09 04:35:01;;;;;;;3.63;3.33;;;7.60;92.30;;;;;;4894769;28;20270;-71
2022/12/09 04:37:27;;;;;;;3.33;3.10;;;7.70;92.40;;;;;;4934905;28;20190;-71
2022/12/09 04:39:53;;;;;;;3.77;3.20;;;7.70;92.20;;;;;;4951957;28;20198;-71
2022/12/09 04:42:18;;;;;;;3.77;2.97;;;7.70;92.30;;;;;;4952570;28;20183;-71
2022/12/09 04:44:44;;;;;;;3.80;2.87;;;7.70;92.20;;;;;;4951420;28;20179;-71
2022/12/09 04:47:10;;;;;;;5.77;2.80;;;7.80;92.70;;;;;;4954252;28;20736;-71
2022/12/09 04:49:35;;;;;;;5.10;3.17;;;7.80;92.30;;;;;;4957662;28;20186;-71
2022/12/09 04:52:01;;;;;;;3.13;2.90;;;7.70;92.40;;;;;;4953872;28;20179;-71
2022/12/09 04:54:27;;;;;;;6.37;3.53;;;7.70;92.20;;;;;;4951454;28;20187;-70
2022/12/09 04:56:52;;;;;;;4.43;3.50;;;7.70;92.20;;;;;;4954902;28;20693;-71
2022/12/09 04:59:18;;;;;;;4.57;2.97;;;7.70;92.50;;;;;;4953038;28;20357;-71
2022/12/09 05:01:44;;;;;;;5.90;2.90;;;7.70;92.20;;;;;;4953977;28;20195;-71
2022/12/09 05:04:10;;;;;;;6.37;2.97;;;7.70;92.30;;;;;;4957652;28;20206;-71
2022/12/09 05:06:35;;;;;;;3.13;2.73;;;7.70;92.50;;;;;;4953056;28;20665;-72
2022/12/09 05:09:02;;;;;;;2.73;2.50;;;7.70;92.40;;;;;;4955540;28;20585;-72
2022/12/09 05:11:27;;;;;;;4.43;2.80;;;7.70;92.40;;;;;;4951982;28;20961;-72
2022/12/09 05:13:53;;;;;;;3.20;3.00;;;7.70;92.60;;;;;;4952216;28;20221;-72
2022/12/09 05:16:19;;;;;;;4.70;2.50;;;7.70;92.30;;;;;;4943636;28;20357;-71
2022/12/09 05:18:47;;;;;;;5.47;3.50;;;7.70;92.30;;;;;;4952472;28;20187;-72
2022/12/09 05:21:15;;;;;;;3.57;3.00;;;7.70;92.60;;;;;;4957356;28;20209;-73
2022/12/09 05:23:42;;;;;;;4.27;2.90;;;7.70;92.30;;;;;;4954108;28;20916;-73
2022/12/09 05:26:10;;;;;;;4.60;3.07;;;7.60;92.20;;;;;;4952830;28;20244;-71
2022/12/09 05:28:37;;;;;;;4.07;3.33;;;7.60;92.40;;;;;;4950873;28;20218;-71
2022/12/09 05:31:05;;;;;;;5.60;3.00;;;7.70;92.70;;;;;;4949480;28;20198;-72
2022/12/09 05:33:32;;;;;;;3.07;2.90;;;7.70;92.70;;;;;;4950194;28;20274;-72
2022/12/09 05:35:58;;;;;;;3.53;2.90;;;7.60;92.50;;;;;;4953297;28;20218;-73
2022/12/09 05:38:24;;;;;;;4.87;2.90;;;7.60;92.70;;;;;;4957373;28;20197;-73
2022/12/09 05:40:51;;;;;;;4.93;2.67;;;7.50;92.60;;;;;;4959275;28;20183;-72
2022/12/09 05:43:17;;;;;;;5.33;3.27;;;7.50;92.50;;;;;;4957400;28;20198;-70
2022/12/09 05:45:43;;;;;;;11.03;3.03;;;7.50;92.70;;;;;;4948770;28;20274;-71
2022/12/09 05:48:09;;;;;;;3.93;3.27;;;7.50;93.20;;;;;;4953571;28;20314;-74
2022/12/09 05:50:35;;;;;;;3.83;3.40;;;7.50;92.70;;;;;;4948058;28;20719;-71
2022/12/09 05:53:01;;;;;;;3.80;3.20;;;7.50;92.70;;;;;;4953915;28;20206;-72
2022/12/09 05:55:27;;;;;;;3.33;3.00;;;;;;;;;;4952046;28;20254;-75
2022/12/09 05:57:53;;;;;;;4.27;3.03;;;7.50;93.10;;;;;;4951049;28;20631;-70
2022/12/09 06:00:21;;;;;;;7.20;3.30;;;7.50;93.10;;;;;;4950573;28;20254;-71
2022/12/09 06:02:46;;;;;;;4.60;3.73;;;7.50;92.70;;;;;;4951601;28;20190;-71
2022/12/09 06:05:12;;;;;;;5.93;3.37;;;7.50;92.70;;;;;;4951986;28;20557;-72
2022/12/09 06:07:38;;;;;;;3.03;2.80;;;7.50;92.70;;;;;;4953439;28;20187;-73
2022/12/09 06:10:04;;;;;;;3.27;2.97;;;7.60;92.70;;;;;;4951226;28;20953;-73
2022/12/09 06:12:30;;;;;;;4.30;2.53;;;7.60;92.60;;;;;;4953876;28;20194;-71
2022/12/09 06:14:56;;;;;;;8.13;4.13;;;7.60;92.70;;;;;;4945199;28;20731;-70
2022/12/09 06:17:21;;;;;;;7.70;4.33;;;7.70;93.30;;;;;;4951291;28;20301;-70
2022/12/09 06:19:47;;;;;;;4.73;3.83;;;7.70;92.80;;;;;;4951838;28;20190;-71
2022/12/09 06:22:12;;;;;;;9.97;4.23;;;7.70;92.70;;;;;;4955512;28;20210;-71
2022/12/09 06:24:38;;;;;;;5.90;3.53;;;7.70;93.00;;;;;;4950129;28;20187;-71
2022/12/09 06:27:04;;;;;;;3.70;3.40;;;7.80;93.30;;;;;;4953876;28;20192;-71
2022/12/09 06:29:30;;;;;;;4.93;4.37;;;7.80;93.20;;;;;;4948216;28;20190;-71
2022/12/09 06:31:55;;;;;;;6.70;4.40;;;7.80;93.10;;;;;;4950569;28;20192;-71
2022/12/09 06:34:21;;;;;;;3.53;3.33;;;7.80;93.00;;;;;;4952688;28;20304;-72
2022/12/09 06:36:47;;;;;;;6.50;3.33;;;7.80;93.00;;;;;;4954818;28;20226;-71
2022/12/09 06:39:13;;;;;;;7.00;5.10;;;7.90;93.40;;;;;;4948828;28;20190;-71
2022/12/09 06:41:41;;;;;;;9.30;5.83;;;7.90;93.20;;;;;;4952564;28;20187;-71
2022/12/09 06:44:09;;;;;;;7.57;5.37;;;7.90;93.20;;;;;;4954399;28;20225;-70
2022/12/09 06:46:35;;;;;;;10.93;6.80;;;8.00;93.30;;;;;;4948895;28;20276;-70
2022/12/09 06:49:01;;;;;;;12.87;7.10;;;8.00;93.00;;;;;;4946020;28;20270;-70
2022/12/09 06:51:26;;;;;;;14.43;7.57;;;8.10;93.40;;;;;;4950736;28;20175;-70
2022/12/09 06:53:53;;;;;;;10.27;7.47;;;8.10;93.40;;;;;;4951461;28;20917;-71
2022/12/09 06:56:19;;;;;;;14.77;7.83;;;8.10;93.10;;;;;;4950231;28;20294;-71
2022/12/09 06:58:45;;;;;;;13.83;8.90;;;8.10;93.00;;;;;;4950048;28;20194;-71
2022/12/09 07:01:16;;;;;;;13.33;7.97;;;8.10;93.10;;;;;;4946897;28;20175;-70
2022/12/09 07:03:44;;;;;;;14.47;8.03;;;8.10;93.20;;;;;;4951977;28;20190;-72
2022/12/09 07:06:33;;;;;;;11.40;7.20;;;8.10;93.00;;;;;;4955116;28;20692;-72
2022/12/09 07:09:02;;;;;;;11.97;8.30;;;8.10;93.00;;;;;;4949555;28;20195;-71
2022/12/09 07:11:28;;;;;;;13.53;6.53;;;8.20;93.20;;;;;;4956354;28;20190;-71
2022/12/09 07:13:53;;;;;;;16.43;7.80;;;8.20;93.20;;;;;;4951924;28;20265;-70
2022/12/09 07:16:19;;;;;;;16.45;6.88;;;8.30;93.30;;;;;;4952663;28;20692;-70
2022/12/09 07:18:45;;;;;;;10.97;7.90;;;8.40;93.10;;;;;;4952166;28;20605;-72
2022/12/09 07:21:13;;;;;;;10.67;8.67;;;8.40;92.90;;;;;;4952262;28;20638;-72
2022/12/09 07:23:40;;;;;;;17.88;8.32;;;8.50;92.80;;;;;;4950956;28;20186;-72
2022/12/09 07:26:06;;;;;;;8.43;6.57;;;8.50;92.60;;;;;;4947355;28;20243;-71
2022/12/09 07:28:33;;;;;;;14.43;7.43;;;8.50;92.80;;;;;;4951725;28;20171;-71
2022/12/09 07:31:00;;;;;;;12.13;8.57;;;8.60;92.70;;;;;;4952371;28;20213;-71
2022/12/09 07:33:26;;;;;;;9.57;7.23;;;8.60;92.70;;;;;;4947620;28;20593;-71
2022/12/09 07:35:56;;;;;;;9.48;6.65;;;8.60;92.80;;;;;;4952212;28;20256;-72
2022/12/09 07:38:23;;;;;;;10.80;7.35;;;8.60;92.30;;;;;;4943751;28;20206;-72
2022/12/09 07:40:49;;;;;;;12.52;7.82;;;8.60;92.40;;;;;;4949195;28;20219;-72
2022/12/09 07:43:14;;;;;;;16.17;8.45;;;8.70;92.60;;;;;;4949328;28;20294;-70
2022/12/09 07:45:40;;;;;;;12.02;8.25;;;8.70;92.70;;;;;;4952634;28;20187;-72
2022/12/09 07:48:07;;;;;;;15.30;8.35;;;8.80;92.60;;;;;;4948326;28;20190;-71
2022/12/09 07:50:34;;;;;;;13.35;7.55;;;8.80;92.40;;;;;;4948416;28;20219;-71
2022/12/09 07:52:59;;;;;;;11.07;7.13;;;8.90;92.50;;;;;;4950925;28;20186;-71
2022/12/09 07:55:25;;;;;;;12.10;7.63;;;8.90;92.50;;;;;;4948878;28;20219;-70
2022/12/09 07:57:51;;;;;;;9.65;7.07;;;9.00;92.30;;;;;;4949489;28;20661;-71
2022/12/09 08:00:18;;;;;;;13.23;8.18;;;9.00;92.40;;;;;;4949889;28;20190;-71
2022/12/09 08:02:44;;;;;;;18.02;8.25;;;9.10;92.40;;;;;;4946705;28;20190;-71
2022/12/09 08:05:10;;;;;;;11.13;7.57;;;9.20;92.30;;;;;;4955582;28;20206;-71
2022/12/09 08:07:35;;;;;;;12.45;7.28;;;9.30;92.40;;;;;;4951015;28;20194;-71
2022/12/09 08:10:01;;;;;;;17.27;8.93;;;9.30;92.10;;;;;;4948018;28;20179;-70
2022/12/09 08:12:27;;;;;;;12.02;7.90;;;9.40;92.10;;;;;;4950403;28;20194;-70
2022/12/09 08:14:53;;;;;;;16.98;8.65;;;9.40;92.00;;;;;;4951627;28;20189;-70
2022/12/09 08:17:18;;;;;;;12.10;8.98;;;9.50;92.30;;;;;;4952066;28;20214;-70
2022/12/09 08:19:44;;;;;;;17.67;8.50;;;9.60;92.20;;;;;;4947391;28;20653;-70
2022/12/09 08:22:10;;;;;;;12.38;8.38;;;9.60;91.90;;;;;;4953125;28;20262;-71
2022/12/09 08:24:36;;;;;;;18.38;10.95;;;9.70;92.20;;;;;;4953260;28;20975;-71
2022/12/09 08:27:01;;;;;;;19.75;11.85;;;9.80;91.50;;;;;;4949886;28;20620;-71
2022/12/09 08:29:27;;;;;;;19.10;11.57;;;9.80;91.20;;;;;;4949197;28;20226;-71
2022/12/09 08:31:53;;;;;;;14.75;9.23;;;9.80;91.50;;;;;;4955214;28;20179;-69
2022/12/09 08:34:19;;;;;;;11.77;8.82;;;9.90;92.10;;;;;;4949154;28;20899;-71
2022/12/09 08:36:44;;;;;;;16.40;8.93;;;10.00;91.90;;;;;;4954800;28;20218;-71
2022/12/09 08:39:12;;;;;;;12.75;9.18;;;10.10;91.80;;;;;;4955749;28;20182;-70
2022/12/09 08:41:38;;;;;;;7.82;7.07;;;10.20;92.00;;;;;;4951643;28;20187;-72
2022/12/09 08:44:06;;;;;;;14.07;7.90;;;10.30;92.20;;;;;;4955696;28;20182;-70
2022/12/09 08:46:33;;;;;;;13.02;7.78;;;10.40;92.00;;;;;;4957930;28;21634;-70
2022/12/09 08:49:02;;;;;;;17.33;7.55;;;10.60;92.10;;;;;;4954819;28;20711;-71
2022/12/09 08:51:29;;;;;;;10.60;6.10;;;10.70;92.20;;;;;;4952842;28;20565;-70
2022/12/09 08:53:56;;;;;;;10.40;7.03;;;10.90;92.20;;;;;;4955483;28;20880;-70
2022/12/09 08:56:22;;;;;;;11.75;6.88;;;11.10;92.10;;;;;;4952985;28;20575;-70
2022/12/09 08:58:48;;;;;;;12.23;9.23;;;11.20;92.00;;;;;;4948319;28;20218;-71
2022/12/09 09:01:17;;;;;;;18.15;9.82;;;11.50;91.20;;;;;;4952314;28;20218;-71
2022/12/09 09:03:44;;;;;;;19.50;10.35;;;11.80;91.70;;;;;;4949759;28;20214;-71
2022/12/09 09:06:10;;;;;;;20.33;10.50;;;12.10;90.20;;;;;;4952799;28;20203;-70
2022/12/09 09:08:36;;;;;;;17.20;10.73;;;12.50;90.10;;;;;;4951209;28;20284;-71
2022/12/09 09:11:08;;;;;;;23.60;10.35;;;12.90;89.80;;;;;;4948320;28;20273;-71
2022/12/09 09:13:35;;;;;;;17.15;8.77;;;13.40;89.80;;;;;;4952926;28;20262;-71
2022/12/09 09:16:01;;;;;;;13.32;8.30;;;13.90;84.90;;;;;;4952046;28;20227;-71
2022/12/09 09:18:27;;;;;;;14.75;8.43;;;14.20;84.60;;;;;;4951876;28;20203;-71
2022/12/09 09:20:56;;;;;;;17.45;9.98;;;14.50;84.70;;;;;;4953558;28;20179;-71
2022/12/09 09:23:22;;;;;;;13.77;8.55;;;14.80;82.50;;;;;;4953186;28;20207;-71
2022/12/09 09:25:47;;;;;;;18.30;10.40;;;15.00;82.20;;;;;;4953892;28;20195;-70
2022/12/09 09:28:13;;;;;;;28.77;10.60;;;15.30;81.90;;;;;;4950450;28;20661;-71
2022/12/09 09:30:39;;;;;;;15.65;9.82;;;15.50;80.90;;;;;;4951542;28;20679;-70
2022/12/09 09:33:04;;;;;;;16.08;9.30;;;15.70;81.20;;;;;;4953132;28;21120;-71
2022/12/09 09:35:30;;;;;;;18.50;10.95;;;16.10;81.30;;;;;;4952174;28;20202;-70
2022/12/09 09:37:56;;;;;;;22.73;11.95;;;16.50;81.10;;;;;;4953269;28;20186;-71
2022/12/09 09:40:22;;;;;;;19.30;11.13;;;17.10;79.80;;;;;;4952162;28;20182;-71
2022/12/09 09:42:50;;;;;;;17.73;9.05;;;17.40;75.80;;;;;;4953086;28;20191;-71
2022/12/09 09:45:21;;;;;;;14.02;7.53;;;17.70;74.80;;;;;;4932443;28;20197;-71
2022/12/09 09:48:05;;;;;;;10.90;6.63;;;17.90;76.10;;;;;;4933873;28;20876;-72
2022/12/09 09:50:34;;;;;;;8.60;6.05;;;18.30;73.30;;;;;;4948659;28;20186;-71
2022/12/09 09:53:10;;;;;;;11.20;5.80;;;18.60;73.20;;;;;;4950537;28;20669;-70
2022/12/09 09:55:42;;;;;;;7.95;5.68;;;19.00;72.30;;;;;;4947778;28;20222;-71
2022/12/09 09:58:15;;;;;;;9.77;6.38;;;19.50;72.40;;;;;;4952584;28;20185;-71
2022/12/09 10:00:58;;;;;;;12.60;6.13;;;19.90;69.10;;;;;;4944567;28;20215;-71
2022/12/09 10:04:06;;;;;;;8.80;5.95;;;20.50;70.60;;;;;;4948060;28;20191;-71
2022/12/09 10:06:41;;;;;;;11.30;6.45;;;21.10;69.30;;;;;;4952798;28;20207;-70
2022/12/09 10:09:18;;;;;;;27.85;7.47;;;21.60;67.30;;;;;;4929332;28;20289;-71
2022/12/09 10:11:47;;;;;;;15.27;7.43;;;21.80;66.80;;;;;;4948911;28;20201;-71
2022/12/09 10:14:21;;;;;;;11.45;6.25;;;21.50;62.50;;;;;;4955223;28;20182;-70
2022/12/09 10:16:57;;;;;;;14.35;7.18;;;21.30;64.80;;;;;;4949359;28;20965;-71
2022/12/09 10:19:37;;;;;;;12.93;8.90;;;21.10;65.40;;;;;;4953823;28;20189;-70
2022/12/09 10:22:19;;;;;;;19.65;9.27;;;20.80;63.80;;;;;;4951207;28;20186;-71
2022/12/09 10:24:48;;;;;;;19.08;9.77;;;20.50;66.80;;;;;;4945926;28;20834;-72
2022/12/09 10:27:20;;;;;;;30.45;10.43;;;20.10;65.50;;;;;;4954384;28;20194;-71
2022/12/09 10:29:48;;;;;;;16.65;8.20;;;19.80;65.50;;;;;;4954182;28;20183;-71
2022/12/09 10:32:19;;;;;;;21.40;9.85;;;19.60;67.30;;;;;;4945487;28;20190;-70
2022/12/09 10:34:49;;;;;;;17.35;9.30;;;19.30;67.80;;;;;;4949180;28;20186;-70
2022/12/09 10:37:34;;;;;;;20.52;10.40;;;18.70;66.40;;;;;;4945801;28;20218;-70
2022/12/09 10:40:03;;;;;;;20.17;10.90;;;18.20;68.30;;;;;;4951756;28;20186;-70
2022/12/09 10:45:17;;;;;;;22.02;11.48;;;17.50;68.60;;;;;;4948250;28;20245;-70
2022/12/09 10:47:49;;;;;;;21.83;10.93;;;17.20;70.30;;;;;;4951286;28;20223;-71
2022/12/09 10:50:30;;;;;;;22.98;11.38;;;17.10;69.80;;;;;;4951778;28;20236;-71
2022/12/09 10:52:57;;;;;;;20.13;9.77;;;16.70;71.20;;;;;;4953565;28;20178;-70
2022/12/09 10:55:35;;;;;;;22.48;10.20;;;16.60;71.50;;;;;;4946523;28;20179;-71
2022/12/09 10:58:17;;;;;;;19.92;9.38;;;16.40;70.00;;;;;;4948689;28;20193;-71
2022/12/09 11:00:57;;;;;;;21.38;9.65;;;16.10;71.20;;;;;;4955782;28;20186;-71
2022/12/09 11:03:29;;;;;;;29.77;10.45;;;15.90;71.90;;;;;;4949948;28;20217;-69
2022/12/09 11:05:58;;;;;;;19.85;10.75;;;15.90;72.20;;;;;;4949973;28;20625;-71
2022/12/09 11:08:24;;;;;;;22.52;11.13;;;15.80;73.20;;;;;;4954502;28;20202;-70
2022/12/09 11:10:50;;;;;;;23.02;11.30;;;15.90;73.20;;;;;;4950956;28;20190;-71
2022/12/09 11:13:18;;;;;;;23.63;11.25;;;15.80;72.30;;;;;;4946743;28;20194;-71
2022/12/09 11:15:52;;;;;;;17.25;11.10;;;15.70;72.60;;;;;;4946169;28;20210;-71
2022/12/09 11:18:29;;;;;;;20.60;9.68;;;15.70;73.30;;;;;;4948959;28;20204;-70
2022/12/09 11:20:59;;;;;;;15.90;10.15;;;15.70;74.20;;;;;;4946851;28;20191;-71
2022/12/09 11:23:25;;;;;;;18.98;10.20;;;15.70;74.10;;;;;;4952143;28;20187;-70
2022/12/09 11:26:01;;;;;;;17.23;9.70;;;15.80;73.60;;;;;;4934750;28;20265;-71
2022/12/09 11:28:30;;;;;;;12.80;8.07;;;15.80;73.50;;;;;;4951668;28;20732;-71
2022/12/09 11:30:57;;;;;;;17.48;10.18;;;16.00;74.10;;;;;;4951934;28;20194;-71
2022/12/09 11:33:28;;;;;;;13.45;8.95;;;16.30;73.80;;;;;;4949731;28;20187;-69
2022/12/09 11:36:05;;;;;;;17.02;8.93;;;16.60;74.20;;;;;;4948646;28;20214;-70
2022/12/09 11:38:40;;;;;;;19.40;8.50;;;16.90;74.00;;;;;;4948374;28;20178;-71
2022/12/09 11:41:13;;;;;;;30.90;8.80;;;17.20;71.20;;;;;;4945833;28;20248;-71
2022/12/09 11:43:49;;;;;;;24.13;8.15;;;17.10;69.80;;;;;;4949077;28;20218;-71
2022/12/09 11:46:25;;;;;;;19.65;9.07;;;17.00;71.30;;;;;;4951293;28;20734;-69
2022/12/09 11:49:05;;;;;;;19.67;8.88;;;16.90;70.70;;;;;;4945777;28;20241;-71
2022/12/09 11:51:37;;;;;;;15.48;8.38;;;16.70;71.50;;;;;;4946109;28;20714;-69
2022/12/09 11:54:24;;;;;;;22.67;8.85;;;16.60;71.50;;;;;;4952414;28;20213;-70
2022/12/09 11:56:51;;;;;;;17.00;8.32;;;16.40;71.10;;;;;;4956885;28;20214;-70
2022/12/09 11:59:22;;;;;;;20.52;8.30;;;16.20;71.90;;;;;;4955360;28;20623;-71
2022/12/09 12:02:29;;;;;;;18.65;8.50;;;16.20;72.00;;;;;;4947467;28;20195;-71
2022/12/09 12:05:23;;;;;;;13.85;7.82;;;16.10;71.60;;;;;;4951543;28;20193;-70
2022/12/09 12:08:00;;;;;;;24.80;9.20;;;15.70;72.50;;;;;;4883510;29;20208;-71
2022/12/09 12:10:30;;;;;;;19.88;8.20;;;15.60;73.40;;;;;;4883001;29;20321;-71
2022/12/09 12:13:09;;;;;;;15.30;6.93;;;15.60;73.50;;;;;;4882415;29;20212;-72
2022/12/09 12:15:49;;;;;;;17.63;6.57;;;15.70;73.70;;;;;;4881662;29;20228;-71
2022/12/09 12:18:21;;;;;;;14.05;6.53;;;15.60;73.30;;;;;;4878755;29;20696;-71
2022/12/09 12:20:58;;;;;;;27.10;7.20;;;15.60;73.90;;;;;;4886113;29;20204;-71
2022/12/09 12:23:42;;;;;;;11.48;7.03;;;15.60;73.80;;;;;;4886615;29;20200;-72
2022/12/09 12:26:25;;;;;;;17.50;7.05;;;15.50;73.90;;;;;;4884831;29;21067;-71
2022/12/09 12:29:27;;;;;;;20.63;7.30;;;15.60;74.20;;;;;;4885488;29;20203;-71
2022/12/09 12:32:43;;;;;;;11.90;5.90;;;15.60;74.40;;;;;;4877558;29;20205;-70
2022/12/09 12:35:15;;;;;;;13.20;6.32;;;15.70;73.80;;;;;;4840216;29;20199;-71
2022/12/09 12:37:50;;;;;;;16.88;7.53;;;15.60;73.70;;;;;;4838518;29;20225;-70
2022/12/09 12:40:30;;;;;;;14.02;6.53;;;15.40;74.10;;;;;;4841392;29;20640;-71
2022/12/09 12:46:15;;;;;;;12.73;7.10;;;15.40;74.60;;;;;;4893274;29;20213;-71
2022/12/09 12:49:02;;;;;;;13.80;6.65;;;15.30;74.80;;;;;;4893296;29;20875;-70
2022/12/09 12:51:42;;;;;;;11.75;6.07;;;15.30;74.30;;;;;;4889634;29;20197;-70
2022/12/09 12:54:29;;;;;;;9.38;6.10;;;15.10;74.70;;;;;;4895379;29;20679;-71
2022/12/09 12:57:26;;;;;;;16.23;6.97;;;15.10;75.10;;;;;;4888597;29;20684;-71
2022/12/09 13:00:06;;;;;;;14.50;8.43;;;15.10;74.70;;;;;;4891449;29;20360;-72
2022/12/09 13:02:50;;;;;;;15.68;7.78;;;14.80;75.10;;;;;;4888725;29;20184;-70
2022/12/09 13:05:30;;;;;;;12.13;7.22;;;14.60;75.60;;;;;;4890467;29;20307;-70
2022/12/09 13:08:14;;;;;;;18.58;7.32;;;14.50;76.40;;;;;;4913532;29;20222;-70
2022/12/09 13:10:46;;;;;;;13.23;7.00;;;14.50;76.40;;;;;;4910747;29;20204;-70